»·PEaware :: N603PM NONE-KPRC

N603PM :: NONE-KPRC

FLIGHT INFORMATION

Flight Status: Arrived
Operator: Privately registered:
United States
More flights under this callsign
Pilot: Charles M. (41337)
Aircraft: CESSNA 172 SKYHAWK
(C172)
More flights by this aircraft type
Origin: NONE
Destination: KPRC Love
United States
More flights between these airports :: More routes between these airports
Route:
File this flight plan on PilotEdge
Remarks:
Altitude:
(Current/Filed)
4,500ft
Speed:
(Current/Filed)
0kts
Departed: 22-Aug-23 07:13 PM
Arrived: 22-Aug-23 08:12 PM
Distance/Time
Traveled:
Not Available
Distance/Time
To Go:
Arrived

Flight Plot

Page will automatically refresh every two minutes.

Flight plan parsing failed; only flown route is shown


Map Options




Map Legend


Flown Route
Filed Route
Departure Airport
Arrival Airport
Navaid (VOR, NDB)
Fix

Horizontal Profiles

Position Reports

Time Latitude Longitude Heading Altitude Ground
Speed
22-Aug-23 19:11 33.120093 -112.412424 296 4538ft 118kts
22-Aug-23 19:12 33.137204 -112.446043 311 4481ft 122kts
22-Aug-23 19:13 33.161127 -112.470529 323 4473ft 110kts
22-Aug-23 19:14 33.184942 -112.493394 315 4471ft 109kts
22-Aug-23 19:15 33.206243 -112.519197 313 4472ft 109kts
22-Aug-23 19:16 33.227267 -112.545090 313 4480ft 108kts
22-Aug-23 19:17 33.248149 -112.570830 313 4488ft 107kts
22-Aug-23 19:18 33.268838 -112.596349 313 4659ft 105kts
22-Aug-23 19:19 33.288888 -112.621099 313 5094ft 101kts
22-Aug-23 19:20 33.307952 -112.644675 313 5562ft 95kts
22-Aug-23 19:21 33.325895 -112.666817 313 6023ft 90kts
22-Aug-23 19:22 33.342605 -112.687525 312 6465ft 79kts
22-Aug-23 19:23 33.361095 -112.710286 312 6664ft 107kts
22-Aug-23 19:24 33.382417 -112.736666 313 6959ft 111kts
22-Aug-23 19:25 33.403502 -112.762762 312 7322ft 106kts
22-Aug-23 19:26 33.423470 -112.787472 311 7661ft 103kts
22-Aug-23 19:27 33.443443 -112.812223 311 7941ft 105kts
22-Aug-23 19:28 33.468660 -112.824534 6 8224ft 107kts
22-Aug-23 19:29 33.498810 -112.822284 6 8517ft 110kts
22-Aug-23 19:30 33.529617 -112.820261 6 8804ft 111kts
22-Aug-23 19:31 33.560635 -112.818408 6 9092ft 112kts
22-Aug-23 19:32 33.591866 -112.816661 5 9385ft 112kts
22-Aug-23 19:33 33.625073 -112.814794 5 9476ft 128kts
22-Aug-23 19:34 33.660189 -112.812910 5 9465ft 125kts
22-Aug-23 19:35 33.694912 -112.811249 4 9459ft 124kts
22-Aug-23 19:36 33.729394 -112.809661 4 9453ft 124kts
22-Aug-23 19:37 33.764050 -112.808159 4 9450ft 124kts
22-Aug-23 19:38 33.798717 -112.806845 4 9453ft 125kts
22-Aug-23 19:39 33.833603 -112.805581 4 9455ft 126kts
22-Aug-23 19:40 33.868732 -112.804495 4 9463ft 126kts
22-Aug-23 19:41 33.903779 -112.801774 17 9467ft 125kts
22-Aug-23 19:42 33.938014 -112.792412 16 9310ft 135kts
22-Aug-23 19:43 33.974604 -112.782112 16 9187ft 129kts
22-Aug-23 19:44 34.007220 -112.766804 28 9180ft 125kts
22-Aug-23 19:45 34.038915 -112.749883 31 9184ft 124kts
22-Aug-23 19:46 34.069526 -112.730696 33 9193ft 124kts
22-Aug-23 19:47 34.099367 -112.710006 37 9201ft 122kts
22-Aug-23 19:48 34.128476 -112.688698 34 9208ft 123kts
22-Aug-23 19:49 34.159717 -112.672575 20 9220ft 123kts
22-Aug-23 19:50 34.194225 -112.661996 18 9232ft 128kts
22-Aug-23 19:51 34.229891 -112.650961 18 9063ft 138kts
22-Aug-23 19:52 34.267266 -112.639376 17 8587ft 134kts
22-Aug-23 19:53 34.302848 -112.628369 18 8108ft 132kts
22-Aug-23 19:54 34.338032 -112.616006 21 7650ft 130kts
22-Aug-23 19:55 34.371460 -112.599900 31 7305ft 125kts
22-Aug-23 19:56 34.400995 -112.580275 33 7322ft 115kts
22-Aug-23 19:57 34.429159 -112.560811 32 7361ft 117kts
22-Aug-23 19:58 34.456577 -112.542103 33 7379ft 111kts
22-Aug-23 19:59 34.482185 -112.521623 52 7405ft 106kts
22-Aug-23 20:00 34.505368 -112.496028 19 7489ft 120kts
22-Aug-23 20:01 34.535937 -112.484543 18 7363ft 115kts
22-Aug-23 20:02 34.566467 -112.475333 13 7268ft 112kts
22-Aug-23 20:03 34.597421 -112.472826 352 7152ft 114kts
22-Aug-23 20:04 34.628293 -112.472057 16 6848ft 110kts
22-Aug-23 20:05 34.655120 -112.458295 32 6536ft 101kts
22-Aug-23 20:06 34.678533 -112.439372 36 6280ft 103kts
22-Aug-23 20:07 34.700100 -112.421793 67 6075ft 82kts
22-Aug-23 20:08 34.692741 -112.396087 120 5893ft 83kts
22-Aug-23 20:09 34.676748 -112.395900 220 5624ft 84kts
22-Aug-23 20:10 34.660795 -112.412809 221 4971ft 61kts
22-Aug-23 20:11 34.657779 -112.417398 219 4986ft 5kts
22-Aug-23 20:12 34.655667 -112.419657 221 4994ft 17kts
22-Aug-23 20:13 34.654716 -112.422035 321 5002ft 0kts

Navigation Log

Ident Type
Flight plan parsing failed, navigation log unavailable